createdAt,value
2022-11-26T00:02:30.552Z,57.73
2022-11-26T00:05:00.972Z,50.55
2022-11-26T00:07:31.591Z,61.08
2022-11-26T00:10:02.221Z,65.70
2022-11-26T00:12:34.234Z,53.13
2022-11-26T00:15:18.076Z,50.75
2022-11-26T00:17:47.828Z,48.48
2022-11-26T00:20:18.516Z,49.83
2022-11-26T00:22:52.906Z,59.05
2022-11-26T00:25:23.977Z,50.00
2022-11-26T00:27:55.756Z,56.48
2022-11-26T00:30:29.050Z,49.20
2022-11-26T00:32:59.510Z,55.23
2022-11-26T00:35:28.758Z,54.60
2022-11-26T00:37:59.134Z,51.08
2022-11-26T00:40:29.791Z,58.65
2022-11-26T00:43:01.794Z,55.80
2022-11-26T00:45:31.941Z,59.63
2022-11-26T00:48:01.962Z,47.67
2022-11-26T00:50:39.679Z,51.65
2022-11-26T00:53:09.188Z,48.48
2022-11-26T00:55:40.147Z,51.70
2022-11-26T00:58:12.871Z,54.58
2022-11-26T01:00:42.188Z,53.83
2022-11-26T01:03:11.794Z,54.40
2022-11-26T01:05:41.013Z,48.92
2022-11-26T01:08:30.149Z,57.98
2022-11-26T01:11:00.436Z,60.67
2022-11-26T01:13:30.709Z,51.68
2022-11-26T01:16:01.788Z,53.15
2022-11-26T01:18:32.781Z,48.95
2022-11-26T01:21:02.086Z,52.10
2022-11-26T01:23:31.599Z,47.95
2022-11-26T01:26:06.131Z,56.42
2022-11-26T01:28:32.127Z,48.58
2022-11-26T01:31:01.426Z,46.50
2022-11-26T01:33:30.701Z,49.53
2022-11-26T01:35:59.929Z,48.15
2022-11-26T01:38:29.218Z,44.20
2022-11-26T01:41:13.680Z,51.70
2022-11-26T01:43:44.035Z,44.67
2022-11-26T01:46:18.807Z,46.30
2022-11-26T01:48:50.142Z,44.98
2022-11-26T01:51:25.968Z,44.65
2022-11-26T01:54:02.241Z,47.78
2022-11-26T01:56:52.795Z,47.73
2022-11-26T01:59:29.814Z,44.95
2022-11-26T02:02:01.147Z,43.92
2022-11-26T02:04:36.925Z,45.15
2022-11-26T02:07:06.988Z,57.55
2022-11-26T02:09:36.898Z,44.23
2022-11-26T02:12:08.180Z,49.05
2022-11-26T02:14:42.488Z,53.10
2022-11-26T02:17:15.298Z,53.63
2022-11-26T02:19:54.082Z,46.50
2022-11-26T02:22:52.771Z,51.63
2022-11-26T02:25:57.285Z,53.30
2022-11-26T02:28:50.555Z,54.10
2022-11-26T02:31:38.220Z,61.30
2022-11-26T02:34:37.464Z,51.77
2022-11-26T02:37:13.368Z,55.90
2022-11-26T02:39:42.743Z,56.42
2022-11-26T02:42:30.577Z,54.33
2022-11-26T02:45:03.213Z,54.63
2022-11-26T02:47:34.155Z,55.73
2022-11-26T02:50:07.215Z,66.60
2022-11-26T02:52:36.929Z,59.50
2022-11-26T02:55:07.785Z,55.35
2022-11-26T02:57:39.260Z,59.38
2022-11-26T03:00:10.432Z,61.53
2022-11-26T03:03:04.073Z,68.35
2022-11-26T03:05:35.961Z,62.62
2022-11-26T03:08:06.870Z,62.35
2022-11-26T03:10:36.408Z,58.87
2022-11-26T03:13:05.658Z,63.08
2022-11-26T03:15:34.899Z,58.08
2022-11-26T03:18:04.410Z,58.33
2022-11-26T03:20:33.617Z,68.17
2022-11-26T03:23:02.872Z,60.38
2022-11-26T03:25:32.277Z,63.05
2022-11-26T03:28:01.678Z,60.60
2022-11-26T03:30:30.918Z,65.67
2022-11-26T03:33:00.207Z,63.90
2022-11-26T03:35:29.628Z,63.13
2022-11-26T03:37:58.859Z,66.15
2022-11-26T03:40:28.362Z,66.82
2022-11-26T03:42:57.599Z,58.48
2022-11-26T03:45:27.163Z,62.62
2022-11-26T03:47:56.466Z,60.52
2022-11-26T03:50:25.860Z,63.52
2022-11-26T03:52:55.090Z,60.80
2022-11-26T03:55:24.352Z,67.03
2022-11-26T03:57:53.853Z,66.45
2022-11-26T04:00:23.622Z,60.73
2022-11-26T04:02:53.149Z,71.35
2022-11-26T04:05:22.723Z,64.62
2022-11-26T04:07:52.177Z,68.85
2022-11-26T04:10:21.652Z,74.82
2022-11-26T04:12:50.962Z,62.43
2022-11-26T04:15:20.388Z,58.15
2022-11-26T04:17:49.722Z,63.17
2022-11-26T04:20:19.084Z,63.63
2022-11-26T04:22:48.365Z,67.45
2022-11-26T04:25:17.806Z,70.42
2022-11-26T04:27:47.073Z,66.28
2022-11-26T04:30:16.981Z,66.10
2022-11-26T04:32:46.374Z,64.75
2022-11-26T04:35:15.676Z,60.10
2022-11-26T04:37:45.172Z,66.75
2022-11-26T04:40:14.831Z,58.05
2022-11-26T04:42:44.255Z,61.10
2022-11-26T04:45:13.574Z,55.95
2022-11-26T04:47:43.350Z,67.30
2022-11-26T04:50:12.915Z,56.35
2022-11-26T04:52:42.186Z,63.28
2022-11-26T04:55:11.815Z,64.55
2022-11-26T04:57:41.126Z,61.98
2022-11-26T05:00:11.367Z,69.27
2022-11-26T05:02:40.616Z,66.35
2022-11-26T05:05:10.312Z,60.30
2022-11-26T05:07:39.871Z,63.40
2022-11-26T05:10:10.400Z,68.20
2022-11-26T05:12:39.762Z,60.35
2022-11-26T05:15:10.148Z,58.95
2022-11-26T05:17:39.827Z,62.60
2022-11-26T05:20:10.539Z,61.10
2022-11-26T05:22:39.764Z,60.88
2022-11-26T05:25:09.942Z,56.73
2022-11-26T05:27:39.429Z,63.15
2022-11-26T05:30:10.601Z,60.78
2022-11-26T05:32:39.810Z,65.85
2022-11-26T05:35:09.614Z,61.02
2022-11-26T05:37:39.294Z,58.68
2022-11-26T05:40:09.884Z,55.38
2022-11-26T05:42:40.098Z,53.28
2022-11-26T05:45:10.059Z,54.45
2022-11-26T05:47:39.495Z,50.73
2022-11-26T05:50:10.263Z,50.88
2022-11-26T05:52:39.698Z,56.60
2022-11-26T05:55:10.442Z,57.67
2022-11-26T05:57:39.809Z,60.98
2022-11-26T06:00:10.669Z,58.28
2022-11-26T06:02:43.977Z,56.85
2022-11-26T06:05:13.339Z,57.88
2022-11-26T06:07:44.941Z,69.67
2022-11-26T06:10:14.836Z,64.00
2022-11-26T06:12:44.056Z,57.78
2022-11-26T06:15:13.331Z,57.43
2022-11-26T06:17:42.607Z,56.13
2022-11-26T06:20:13.076Z,53.80
2022-11-26T06:22:44.449Z,61.45
2022-11-26T06:25:15.707Z,64.77
2022-11-26T06:27:45.102Z,55.60
2022-11-26T06:30:15.278Z,57.80
2022-11-26T06:32:44.485Z,52.05
2022-11-26T06:35:13.794Z,65.30
2022-11-26T06:37:43.236Z,51.15
2022-11-26T06:40:16.007Z,68.10
2022-11-26T06:42:53.486Z,57.67
2022-11-26T06:45:24.511Z,48.80
2022-11-26T06:47:53.946Z,56.68
2022-11-26T06:50:24.589Z,60.67
2022-11-26T06:52:54.663Z,58.10
2022-11-26T06:55:24.312Z,62.90
2022-11-26T06:57:53.797Z,56.63
2022-11-26T07:00:24.305Z,58.63
2022-11-26T07:02:53.856Z,53.95
2022-11-26T07:05:23.283Z,56.58
2022-11-26T07:07:52.654Z,54.13
2022-11-26T07:10:23.200Z,57.45
2022-11-26T07:12:52.458Z,59.88
2022-11-26T07:15:22.027Z,51.50
2022-11-26T07:17:51.301Z,49.63
2022-11-26T07:20:20.625Z,51.10
2022-11-26T07:22:49.888Z,50.85
2022-11-26T07:25:19.191Z,50.63
2022-11-26T07:27:48.431Z,55.65
2022-11-26T07:30:18.347Z,43.28
2022-11-26T07:32:47.730Z,58.95
2022-11-26T07:35:20.193Z,53.38
2022-11-26T07:37:49.811Z,60.45
2022-11-26T07:40:19.128Z,60.78
2022-11-26T07:42:53.093Z,54.40
2022-11-26T07:45:20.744Z,56.98
2022-11-26T07:47:50.201Z,55.08
2022-11-26T07:50:19.479Z,48.78
2022-11-26T07:52:48.925Z,53.90
2022-11-26T07:55:18.216Z,48.45
2022-11-26T07:57:47.697Z,57.75
2022-11-26T08:00:18.149Z,48.83
2022-11-26T08:02:47.731Z,48.58
2022-11-26T08:05:17.397Z,52.88
2022-11-26T08:07:46.813Z,44.98
2022-11-26T08:10:16.540Z,45.98
2022-11-26T08:12:48.341Z,47.00
2022-11-26T08:15:18.011Z,45.95
2022-11-26T08:17:47.531Z,43.48
2022-11-26T08:20:17.058Z,47.23
2022-11-26T08:22:46.655Z,47.50
2022-11-26T08:25:16.654Z,39.38
2022-11-26T08:27:45.886Z,42.08
2022-11-26T08:30:15.402Z,44.98
2022-11-26T08:32:44.825Z,45.60
2022-11-26T08:35:14.273Z,33.65
2022-11-26T08:37:43.637Z,40.33
2022-11-26T08:40:14.183Z,42.73
2022-11-26T08:42:43.644Z,41.20
2022-11-26T08:45:13.096Z,39.30
2022-11-26T08:47:42.369Z,40.80
2022-11-26T08:50:12.321Z,45.28
2022-11-26T08:52:41.671Z,34.78
2022-11-26T08:55:11.338Z,38.88
2022-11-26T08:57:40.668Z,39.88
2022-11-26T09:00:10.827Z,37.65
2022-11-26T09:02:40.127Z,38.13
2022-11-26T09:05:09.556Z,41.00
2022-11-26T09:07:39.013Z,34.98
2022-11-26T09:10:08.929Z,38.98
2022-11-26T09:12:38.704Z,40.38
2022-11-26T09:15:08.588Z,31.00
2022-11-26T09:17:37.966Z,40.40
2022-11-26T09:20:08.369Z,39.55
2022-11-26T09:22:37.703Z,37.38
2022-11-26T09:25:07.496Z,39.03
2022-11-26T09:27:36.984Z,35.17
2022-11-26T09:30:07.203Z,34.08
2022-11-26T09:32:37.450Z,30.45
2022-11-26T09:35:07.669Z,32.10
2022-11-26T09:37:37.072Z,30.02
2022-11-26T09:40:07.371Z,36.35
2022-11-26T09:42:39.821Z,29.87
2022-11-26T09:45:15.198Z,33.10
2022-11-26T09:47:47.834Z,36.13
2022-11-26T09:52:55.067Z,34.27
2022-11-26T09:55:36.321Z,25.80
2022-11-26T09:58:14.987Z,34.05
2022-11-26T10:00:47.036Z,34.00
2022-11-26T10:03:20.137Z,27.37
2022-11-26T10:06:18.211Z,26.57
2022-11-26T10:09:05.756Z,27.77
2022-11-26T10:11:40.823Z,26.80
2022-11-26T10:14:29.866Z,22.52
2022-11-26T10:17:32.619Z,29.40
2022-11-26T10:20:26.529Z,33.53
2022-11-26T10:22:59.231Z,23.55
2022-11-26T10:27:59.872Z,28.10
2022-11-26T10:30:30.967Z,25.00
2022-11-26T10:33:01.734Z,25.75
2022-11-26T10:35:31.299Z,28.90
2022-11-26T10:38:00.703Z,31.57
2022-11-26T10:40:33.797Z,27.25
2022-11-26T10:43:12.801Z,24.63
2022-11-26T10:45:44.462Z,30.02
2022-11-26T10:48:30.706Z,28.75
2022-11-26T10:51:14.391Z,30.12
2022-11-26T10:53:55.484Z,28.35
2022-11-26T10:56:42.874Z,23.18
2022-11-26T10:59:27.108Z,26.15
2022-11-26T11:01:58.633Z,27.58
2022-11-26T11:04:33.524Z,26.85
2022-11-26T11:07:06.240Z,24.60
2022-11-26T11:09:36.602Z,21.50
2022-11-26T11:12:14.781Z,19.42
2022-11-26T11:14:45.847Z,20.08
2022-11-26T11:17:36.098Z,22.17
2022-11-26T11:20:17.828Z,23.22
2022-11-26T11:22:47.485Z,19.35
2022-11-26T11:25:25.574Z,24.40
2022-11-26T11:27:55.482Z,22.58
2022-11-26T11:30:30.120Z,28.70
2022-11-26T11:33:14.816Z,26.52
2022-11-26T11:35:44.036Z,26.95
2022-11-26T11:38:24.414Z,22.00
2022-11-26T11:40:53.934Z,26.75
2022-11-26T11:43:25.077Z,25.85
2022-11-26T11:46:03.401Z,23.20
2022-11-26T11:48:44.148Z,25.52
2022-11-26T11:51:46.209Z,28.02
2022-11-26T11:54:27.641Z,22.40
2022-11-26T11:57:09.005Z,22.95
2022-11-26T12:00:01.176Z,22.05
2022-11-26T12:02:50.284Z,30.87
2022-11-26T12:05:57.261Z,30.82
2022-11-26T12:08:35.908Z,25.35
2022-11-26T12:11:43.349Z,23.40
2022-11-26T12:14:16.046Z,26.80
2022-11-26T12:19:27.032Z,26.30
2022-11-26T12:21:59.404Z,21.48
2022-11-26T12:24:44.669Z,23.40
2022-11-26T12:27:19.697Z,25.85
2022-11-26T12:29:52.708Z,20.72
2022-11-26T12:32:30.906Z,21.10
2022-11-26T12:35:03.577Z,26.87
2022-11-26T12:40:17.769Z,28.17
2022-11-26T12:42:52.900Z,25.25
2022-11-26T12:45:43.600Z,26.40
2022-11-26T12:48:41.726Z,22.62
2022-11-26T12:51:25.877Z,25.02
2022-11-26T12:54:09.763Z,23.75
2022-11-26T12:56:45.364Z,26.95
2022-11-26T12:59:23.895Z,21.73
2022-11-26T13:01:53.545Z,21.30
2022-11-26T13:04:37.654Z,17.92
2022-11-26T13:11:08.728Z,27.00
2022-11-26T13:13:40.884Z,23.15
2022-11-26T13:16:22.260Z,24.47
2022-11-26T13:18:54.706Z,21.33
2022-11-26T13:21:49.350Z,20.27
2022-11-26T13:24:42.909Z,25.65
2022-11-26T13:27:33.630Z,24.07
2022-11-26T13:30:14.709Z,22.05
2022-11-26T13:33:06.848Z,25.97
2022-11-26T13:35:41.872Z,26.60
2022-11-26T13:38:20.434Z,21.02
2022-11-26T13:41:05.010Z,30.85
2022-11-26T13:44:04.545Z,18.10
2022-11-26T13:46:45.159Z,20.95
2022-11-26T13:49:17.628Z,22.75
2022-11-26T13:51:58.874Z,25.12
2022-11-26T13:54:43.335Z,22.60
2022-11-26T13:57:15.724Z,21.60
2022-11-26T13:59:52.662Z,22.30
2022-11-26T14:02:37.487Z,24.00
2022-11-26T14:05:09.784Z,21.60
2022-11-26T14:07:39.437Z,23.45
2022-11-26T14:10:37.744Z,19.92
2022-11-26T14:13:11.593Z,19.45
2022-11-26T14:15:47.158Z,19.45
2022-11-26T14:18:18.177Z,21.52
2022-11-26T14:21:04.029Z,24.37
2022-11-26T14:23:46.448Z,22.13
2022-11-26T14:26:30.513Z,16.48
2022-11-26T14:29:11.950Z,20.23
2022-11-26T14:31:51.325Z,17.48
2022-11-26T14:34:39.372Z,18.23
2022-11-26T14:37:17.456Z,14.80
2022-11-26T14:39:46.840Z,10.32
2022-11-26T14:42:17.489Z,13.35
2022-11-26T14:44:46.678Z,11.60
2022-11-26T14:47:21.088Z,13.43
2022-11-26T14:49:56.685Z,9.90
2022-11-26T14:52:34.642Z,12.47
2022-11-26T14:55:23.934Z,9.68
2022-11-26T14:58:06.119Z,8.18
2022-11-26T15:00:33.754Z,14.68
2022-11-26T15:03:05.827Z,11.93
2022-11-26T15:05:42.017Z,11.10
2022-11-26T15:08:20.244Z,12.65
2022-11-26T15:10:52.619Z,14.30
2022-11-26T15:13:31.051Z,11.78
2022-11-26T15:16:01.959Z,14.83
2022-11-26T15:18:32.809Z,9.90
2022-11-26T15:21:03.171Z,10.75
2022-11-26T15:23:37.480Z,14.05
2022-11-26T15:26:07.585Z,17.50
2022-11-26T15:28:41.083Z,11.48
2022-11-26T15:31:10.919Z,12.98
2022-11-26T15:33:41.271Z,16.10
2022-11-26T15:36:17.112Z,13.53
2022-11-26T15:39:03.353Z,14.75
2022-11-26T15:41:33.687Z,12.88
2022-11-26T15:44:04.145Z,13.60
2022-11-26T15:46:35.816Z,12.15
2022-11-26T15:49:08.323Z,11.53
2022-11-26T15:51:41.320Z,17.57
2022-11-26T15:54:38.380Z,15.20
2022-11-26T15:57:06.545Z,14.05
2022-11-26T15:59:35.716Z,13.68
2022-11-26T16:02:17.112Z,18.07
2022-11-26T16:04:51.446Z,13.88
2022-11-26T16:07:23.997Z,16.52
2022-11-26T16:09:55.777Z,18.75
2022-11-26T16:12:30.736Z,16.07
2022-11-26T16:15:15.968Z,12.33
2022-11-26T16:17:43.492Z,12.88
2022-11-26T16:20:24.325Z,18.42
2022-11-26T16:23:01.152Z,17.52
2022-11-26T16:25:33.433Z,17.02
2022-11-26T16:28:12.055Z,17.95
2022-11-26T16:30:44.548Z,17.55
2022-11-26T16:33:14.155Z,11.53
2022-11-26T16:35:45.657Z,19.12
2022-11-26T16:38:22.651Z,13.80
2022-11-26T16:40:52.467Z,21.50
2022-11-26T16:43:21.808Z,14.28
2022-11-26T16:45:53.992Z,14.78
2022-11-26T16:48:26.877Z,15.90
2022-11-26T16:50:57.457Z,18.92
2022-11-26T16:53:26.979Z,19.23
2022-11-26T16:55:56.567Z,14.03
2022-11-26T16:58:37.620Z,15.78
2022-11-26T17:01:07.134Z,19.45
2022-11-26T17:03:36.579Z,21.95
2022-11-26T17:06:15.024Z,18.12
2022-11-26T17:08:49.478Z,26.68
2022-11-26T17:11:15.321Z,27.75
2022-11-26T17:13:44.561Z,138.00
2022-11-26T17:16:19.144Z,26.30
2022-11-26T17:18:49.331Z,27.75
2022-11-26T17:21:18.704Z,35.70
2022-11-26T17:23:48.031Z,28.00
2022-11-26T17:26:24.353Z,28.87
2022-11-26T17:28:53.745Z,29.55
2022-11-26T17:31:23.163Z,32.55
2022-11-26T17:33:53.471Z,28.98
2022-11-26T17:36:24.000Z,35.20
2022-11-26T17:38:53.708Z,26.52
2022-11-26T17:41:23.067Z,30.80
2022-11-26T17:43:52.545Z,31.90
2022-11-26T17:46:23.064Z,31.02
2022-11-26T17:48:57.021Z,28.00
2022-11-26T17:51:23.657Z,30.32
2022-11-26T17:53:53.294Z,27.95
2022-11-26T17:56:24.580Z,27.42
2022-11-26T17:58:54.327Z,27.42
2022-11-26T18:01:23.980Z,28.73
2022-11-26T18:03:53.575Z,30.17
2022-11-26T18:06:37.419Z,28.85
2022-11-26T18:09:06.769Z,31.00
2022-11-26T18:11:48.003Z,30.95
2022-11-26T18:14:18.222Z,28.70
2022-11-26T18:16:47.783Z,36.50
2022-11-26T18:19:18.770Z,28.07
2022-11-26T18:21:49.421Z,33.10
2022-11-26T18:24:18.890Z,33.83
2022-11-26T18:26:48.140Z,35.43
2022-11-26T18:29:17.588Z,31.70
2022-11-26T18:31:46.923Z,24.72
2022-11-26T18:34:16.172Z,29.37
2022-11-26T18:36:49.361Z,34.10
2022-11-26T18:39:16.846Z,32.10
2022-11-26T18:41:46.096Z,29.23
2022-11-26T18:44:15.712Z,30.25
2022-11-26T18:46:44.935Z,33.25
2022-11-26T18:49:14.360Z,37.03
2022-11-26T18:51:43.669Z,29.48
2022-11-26T18:54:15.881Z,28.42
2022-11-26T18:56:45.552Z,27.70
2022-11-26T18:59:15.566Z,29.27
2022-11-26T19:01:45.572Z,32.25
2022-11-26T19:04:17.569Z,30.48
2022-11-26T19:06:46.799Z,25.88
2022-11-26T19:09:18.497Z,29.42
2022-11-26T19:11:49.075Z,35.20
2022-11-26T19:14:18.591Z,29.10
2022-11-26T19:16:50.566Z,33.25
2022-11-26T19:19:20.493Z,41.02
2022-11-26T19:21:50.434Z,34.55
2022-11-26T19:24:19.863Z,29.40
2022-11-26T19:26:49.122Z,40.03
2022-11-26T19:29:18.683Z,28.12
2022-11-26T19:31:48.077Z,32.00
2022-11-26T19:34:17.869Z,30.77
2022-11-26T19:36:49.170Z,32.17
2022-11-26T19:39:19.682Z,30.15
2022-11-26T19:41:49.170Z,28.52
2022-11-26T19:44:18.515Z,34.70
2022-11-26T19:46:48.346Z,30.68
2022-11-26T19:49:17.728Z,25.52
2022-11-26T19:51:46.991Z,29.63
2022-11-26T19:54:16.187Z,29.20
2022-11-26T19:56:46.844Z,32.78
2022-11-26T19:59:19.151Z,30.92
2022-11-26T20:01:48.879Z,29.15
2022-11-26T20:04:19.775Z,28.77
2022-11-26T20:06:49.219Z,33.85
2022-11-26T20:09:18.689Z,28.62
2022-11-26T20:11:48.082Z,34.00
2022-11-26T20:14:17.438Z,34.45
2022-11-26T20:16:47.036Z,27.58
2022-11-26T20:19:18.144Z,31.33
2022-11-26T20:21:49.235Z,26.10
2022-11-26T20:24:19.262Z,29.92
2022-11-26T20:26:50.388Z,29.45
2022-11-26T20:29:20.283Z,30.35
2022-11-26T20:31:52.139Z,31.95
2022-11-26T20:34:24.113Z,25.48
2022-11-26T20:36:53.640Z,28.98
2022-11-26T20:39:24.956Z,33.80
2022-11-26T20:41:54.419Z,30.45
2022-11-26T20:44:24.859Z,28.10
2022-11-26T20:46:55.768Z,25.43
2022-11-26T20:49:28.432Z,27.58
2022-11-26T20:51:56.387Z,28.00
2022-11-26T20:54:26.879Z,29.60
2022-11-26T20:56:56.170Z,30.05
2022-11-26T20:59:25.844Z,27.50
2022-11-26T21:01:55.547Z,28.02
2022-11-26T21:04:25.075Z,28.90
2022-11-26T21:06:54.432Z,34.00
2022-11-26T21:09:24.090Z,28.90
2022-11-26T21:11:53.462Z,28.02
2022-11-26T21:14:22.972Z,32.45
2022-11-26T21:16:52.805Z,31.12
2022-11-26T21:19:22.214Z,26.35
2022-11-26T21:21:51.585Z,27.65
2022-11-26T21:24:21.107Z,31.33
2022-11-26T21:26:50.423Z,30.08
2022-11-26T21:29:20.235Z,34.88
2022-11-26T21:31:49.842Z,26.07
2022-11-26T21:34:19.295Z,30.05
2022-11-26T21:36:48.657Z,28.05
2022-11-26T21:39:18.310Z,29.82
2022-11-26T21:41:47.693Z,27.45
2022-11-26T21:44:17.153Z,34.35
2022-11-26T21:46:46.754Z,28.20
2022-11-26T21:49:16.316Z,25.40
2022-11-26T21:51:46.088Z,29.00
2022-11-26T21:54:16.614Z,24.75
2022-11-26T21:56:45.835Z,25.30
2022-11-26T21:59:15.361Z,22.10
2022-11-26T22:01:45.564Z,27.85
2022-11-26T22:04:19.630Z,27.07
2022-11-26T22:06:49.493Z,29.63
2022-11-26T22:09:19.194Z,26.45
2022-11-26T22:11:48.445Z,29.25
2022-11-26T22:14:18.174Z,29.35
2022-11-26T22:16:49.406Z,21.57
2022-11-26T22:19:18.731Z,26.20
2022-11-26T22:21:48.534Z,24.47
2022-11-26T22:24:20.381Z,26.52
2022-11-26T22:26:49.799Z,30.12
2022-11-26T22:29:20.077Z,23.80
2022-11-26T22:31:50.562Z,25.48
2022-11-26T22:34:25.975Z,24.82
2022-11-26T22:36:55.367Z,25.32
2022-11-26T22:39:24.723Z,21.05
2022-11-26T22:41:54.346Z,24.10
2022-11-26T22:44:23.942Z,21.25
2022-11-26T22:46:53.320Z,28.98
2022-11-26T22:49:22.834Z,18.90
2022-11-26T22:51:52.069Z,26.97
2022-11-26T22:54:21.701Z,18.87
2022-11-26T22:56:51.038Z,22.73
2022-11-26T22:59:20.447Z,27.48
2022-11-26T23:01:49.757Z,20.62
2022-11-26T23:04:19.134Z,22.48
2022-11-26T23:06:48.495Z,21.95
2022-11-26T23:09:18.218Z,20.43
2022-11-26T23:11:47.727Z,17.23
2022-11-26T23:14:17.054Z,20.72
2022-11-26T23:16:46.434Z,18.45
2022-11-26T23:19:16.977Z,18.30
2022-11-26T23:21:47.132Z,19.40
2022-11-26T23:24:17.328Z,17.52
2022-11-26T23:26:46.891Z,20.95
2022-11-26T23:29:16.333Z,21.07
2022-11-26T23:31:45.982Z,23.55
2022-11-26T23:34:16.073Z,21.93
2022-11-26T23:36:45.318Z,19.70
2022-11-26T23:39:14.985Z,20.23
2022-11-26T23:41:44.677Z,22.05
2022-11-26T23:44:13.910Z,19.40
2022-11-26T23:46:43.261Z,20.25
2022-11-26T23:49:12.614Z,19.87
2022-11-26T23:51:41.872Z,17.23
2022-11-26T23:54:11.089Z,16.10
2022-11-26T23:56:42.255Z,22.82
2022-11-26T23:59:12.525Z,22.65
